sensor_id;sensor_type;location;lat;lon;timestamp;temperature;humidity
19397;DHT22;9834;48.076;11.878;2023-05-07T00:00:09;10.30;99.90
19397;DHT22;9834;48.076;11.878;2023-05-07T00:02:38;10.30;99.90
19397;DHT22;9834;48.076;11.878;2023-05-07T00:05:07;10.30;99.90
19397;DHT22;9834;48.076;11.878;2023-05-07T00:07:34;10.30;99.90
19397;DHT22;9834;48.076;11.878;2023-05-07T00:10:02;10.30;99.90
19397;DHT22;9834;48.076;11.878;2023-05-07T00:12:29;10.30;99.90
19397;DHT22;9834;48.076;11.878;2023-05-07T00:14:57;10.30;99.90
19397;DHT22;9834;48.076;11.878;2023-05-07T00:17:24;10.20;99.90
19397;DHT22;9834;48.076;11.878;2023-05-07T00:19:53;10.20;99.90
19397;DHT22;9834;48.076;11.878;2023-05-07T00:22:21;10.20;99.90
19397;DHT22;9834;48.076;11.878;2023-05-07T00:24:48;10.20;99.90
19397;DHT22;9834;48.076;11.878;2023-05-07T00:27:16;10.20;99.90
19397;DHT22;9834;48.076;11.878;2023-05-07T00:29:43;10.10;99.90
19397;DHT22;9834;48.076;11.878;2023-05-07T00:32:11;10.10;99.90
19397;DHT22;9834;48.076;11.878;2023-05-07T00:34:38;10.10;99.90
19397;DHT22;9834;48.076;11.878;2023-05-07T00:37:07;10.10;99.90
19397;DHT22;9834;48.076;11.878;2023-05-07T00:39:35;10.10;99.90
19397;DHT22;9834;48.076;11.878;2023-05-07T00:42:03;10.10;99.90
19397;DHT22;9834;48.076;11.878;2023-05-07T00:44:30;10.10;99.90
19397;DHT22;9834;48.076;11.878;2023-05-07T00:46:58;10.10;99.90
19397;DHT22;9834;48.076;11.878;2023-05-07T00:49:37;10.10;99.90
19397;DHT22;9834;48.076;11.878;2023-05-07T00:52:08;10.10;99.90
19397;DHT22;9834;48.076;11.878;2023-05-07T00:54:36;10.10;99.90
19397;DHT22;9834;48.076;11.878;2023-05-07T00:57:04;10.10;99.90
19397;DHT22;9834;48.076;11.878;2023-05-07T00:59:32;10.10;99.90
19397;DHT22;9834;48.076;11.878;2023-05-07T01:02:00;10.20;99.90
19397;DHT22;9834;48.076;11.878;2023-05-07T01:04:28;10.20;99.90
19397;DHT22;9834;48.076;11.878;2023-05-07T01:06:56;10.20;99.90
19397;DHT22;9834;48.076;11.878;2023-05-07T01:09:27;10.20;99.90
19397;DHT22;9834;48.076;11.878;2023-05-07T01:11:55;10.20;99.90
19397;DHT22;9834;48.076;11.878;2023-05-07T01:14:24;10.20;99.90
19397;DHT22;9834;48.076;11.878;2023-05-07T01:16:52;10.20;99.90
19397;DHT22;9834;48.076;11.878;2023-05-07T01:19:20;10.10;99.90
19397;DHT22;9834;48.076;11.878;2023-05-07T01:21:49;10.10;99.90
19397;DHT22;9834;48.076;11.878;2023-05-07T01:24:19;10.10;99.90
19397;DHT22;9834;48.076;11.878;2023-05-07T01:26:47;10.10;99.90
19397;DHT22;9834;48.076;11.878;2023-05-07T01:29:14;10.10;99.90
19397;DHT22;9834;48.076;11.878;2023-05-07T01:31:42;10.10;99.90
19397;DHT22;9834;48.076;11.878;2023-05-07T01:34:11;10.10;99.90
19397;DHT22;9834;48.076;11.878;2023-05-07T01:36:40;10.10;99.90
19397;DHT22;9834;48.076;11.878;2023-05-07T01:39:10;10.10;99.90
19397;DHT22;9834;48.076;11.878;2023-05-07T01:41:39;10.10;99.90
19397;DHT22;9834;48.076;11.878;2023-05-07T01:44:06;10.10;99.90
19397;DHT22;9834;48.076;11.878;2023-05-07T01:46:34;10.10;99.90
19397;DHT22;9834;48.076;11.878;2023-05-07T01:49:02;10.10;99.90
19397;DHT22;9834;48.076;11.878;2023-05-07T01:51:30;10.10;99.90
19397;DHT22;9834;48.076;11.878;2023-05-07T01:53:58;10.10;99.90
19397;DHT22;9834;48.076;11.878;2023-05-07T01:56:26;10.00;99.90
19397;DHT22;9834;48.076;11.878;2023-05-07T01:58:54;10.00;99.90
19397;DHT22;9834;48.076;11.878;2023-05-07T02:01:22;10.00;99.90
19397;DHT22;9834;48.076;11.878;2023-05-07T02:03:49;10.00;99.90
19397;DHT22;9834;48.076;11.878;2023-05-07T02:06:17;10.00;99.90
19397;DHT22;9834;48.076;11.878;2023-05-07T02:08:45;10.00;99.90
19397;DHT22;9834;48.076;11.878;2023-05-07T02:11:12;10.00;99.90
19397;DHT22;9834;48.076;11.878;2023-05-07T02:13:40;10.00;99.90
19397;DHT22;9834;48.076;11.878;2023-05-07T02:16:09;10.00;99.90
19397;DHT22;9834;48.076;11.878;2023-05-07T02:18:36;10.00;99.90
19397;DHT22;9834;48.076;11.878;2023-05-07T02:21:04;9.90;99.90
19397;DHT22;9834;48.076;11.878;2023-05-07T02:23:31;9.90;99.90
19397;DHT22;9834;48.076;11.878;2023-05-07T02:25:58;9.90;99.90
19397;DHT22;9834;48.076;11.878;2023-05-07T02:28:26;9.90;99.90
19397;DHT22;9834;48.076;11.878;2023-05-07T02:30:53;9.90;99.90
19397;DHT22;9834;48.076;11.878;2023-05-07T02:33:22;9.80;99.90
19397;DHT22;9834;48.076;11.878;2023-05-07T02:35:50;9.90;99.90
19397;DHT22;9834;48.076;11.878;2023-05-07T02:38:17;9.90;99.90
19397;DHT22;9834;48.076;11.878;2023-05-07T02:40:45;9.80;99.90
19397;DHT22;9834;48.076;11.878;2023-05-07T02:43:12;9.80;99.90
19397;DHT22;9834;48.076;11.878;2023-05-07T02:45:40;9.80;99.90
19397;DHT22;9834;48.076;11.878;2023-05-07T02:48:08;9.80;99.90
19397;DHT22;9834;48.076;11.878;2023-05-07T02:50:37;9.80;99.90
19397;DHT22;9834;48.076;11.878;2023-05-07T02:53:05;9.80;99.90
19397;DHT22;9834;48.076;11.878;2023-05-07T02:55:32;9.80;99.90
19397;DHT22;9834;48.076;11.878;2023-05-07T02:57:59;9.70;99.90
19397;DHT22;9834;48.076;11.878;2023-05-07T03:00:26;9.70;99.90
19397;DHT22;9834;48.076;11.878;2023-05-07T03:02:53;9.70;99.90
19397;DHT22;9834;48.076;11.878;2023-05-07T03:05:21;9.70;99.90
19397;DHT22;9834;48.076;11.878;2023-05-07T03:07:50;9.70;99.90
19397;DHT22;9834;48.076;11.878;2023-05-07T03:10:18;9.70;99.90
19397;DHT22;9834;48.076;11.878;2023-05-07T03:12:45;9.60;99.90
19397;DHT22;9834;48.076;11.878;2023-05-07T03:15:12;9.70;99.90
19397;DHT22;9834;48.076;11.878;2023-05-07T03:17:40;9.60;99.90
19397;DHT22;9834;48.076;11.878;2023-05-07T03:20:08;9.60;99.90
19397;DHT22;9834;48.076;11.878;2023-05-07T03:22:36;9.60;99.90
19397;DHT22;9834;48.076;11.878;2023-05-07T03:25:07;9.60;99.90
19397;DHT22;9834;48.076;11.878;2023-05-07T03:27:34;9.60;99.90
19397;DHT22;9834;48.076;11.878;2023-05-07T03:30:01;9.60;99.90
19397;DHT22;9834;48.076;11.878;2023-05-07T03:32:29;9.60;99.90
19397;DHT22;9834;48.076;11.878;2023-05-07T03:34:56;9.60;99.90
19397;DHT22;9834;48.076;11.878;2023-05-07T03:37:24;9.60;99.90
19397;DHT22;9834;48.076;11.878;2023-05-07T03:39:51;9.50;99.90
19397;DHT22;9834;48.076;11.878;2023-05-07T03:42:20;9.50;99.90
19397;DHT22;9834;48.076;11.878;2023-05-07T03:44:47;9.50;99.90
19397;DHT22;9834;48.076;11.878;2023-05-07T03:47:15;9.50;99.90
19397;DHT22;9834;48.076;11.878;2023-05-07T03:49:42;9.50;99.90
19397;DHT22;9834;48.076;11.878;2023-05-07T03:52:10;9.50;99.90
19397;DHT22;9834;48.076;11.878;2023-05-07T03:54:38;9.40;99.90
19397;DHT22;9834;48.076;11.878;2023-05-07T03:57:05;9.50;99.90
19397;DHT22;9834;48.076;11.878;2023-05-07T03:59:34;9.50;99.90
19397;DHT22;9834;48.076;11.878;2023-05-07T04:02:01;9.50;99.90
19397;DHT22;9834;48.076;11.878;2023-05-07T04:04:29;9.50;99.90
19397;DHT22;9834;48.076;11.878;2023-05-07T04:06:58;9.50;99.90
19397;DHT22;9834;48.076;11.878;2023-05-07T04:09:26;9.60;99.90
19397;DHT22;9834;48.076;11.878;2023-05-07T04:11:54;9.60;99.90
19397;DHT22;9834;48.076;11.878;2023-05-07T04:14:21;9.60;99.90
19397;DHT22;9834;48.076;11.878;2023-05-07T04:16:50;9.60;99.90
19397;DHT22;9834;48.076;11.878;2023-05-07T04:19:17;9.60;99.90
19397;DHT22;9834;48.076;11.878;2023-05-07T04:21:44;9.70;99.90
19397;DHT22;9834;48.076;11.878;2023-05-07T04:24:12;9.70;99.90
19397;DHT22;9834;48.076;11.878;2023-05-07T04:26:39;9.80;99.90
19397;DHT22;9834;48.076;11.878;2023-05-07T04:29:07;9.90;99.90
19397;DHT22;9834;48.076;11.878;2023-05-07T04:31:34;9.90;99.90
19397;DHT22;9834;48.076;11.878;2023-05-07T04:34:02;9.90;99.90
19397;DHT22;9834;48.076;11.878;2023-05-07T04:36:30;10.00;99.90
19397;DHT22;9834;48.076;11.878;2023-05-07T04:38:59;10.10;99.90
19397;DHT22;9834;48.076;11.878;2023-05-07T04:41:26;10.20;99.90
19397;DHT22;9834;48.076;11.878;2023-05-07T04:43:54;10.20;99.90
19397;DHT22;9834;48.076;11.878;2023-05-07T04:46:22;10.30;99.90
19397;DHT22;9834;48.076;11.878;2023-05-07T04:48:50;10.40;99.90
19397;DHT22;9834;48.076;11.878;2023-05-07T04:51:19;10.50;99.90
19397;DHT22;9834;48.076;11.878;2023-05-07T04:53:47;10.60;99.90
19397;DHT22;9834;48.076;11.878;2023-05-07T04:56:14;10.70;99.90
19397;DHT22;9834;48.076;11.878;2023-05-07T04:58:42;10.70;99.90
19397;DHT22;9834;48.076;11.878;2023-05-07T05:01:09;10.80;99.90
19397;DHT22;9834;48.076;11.878;2023-05-07T05:03:37;10.90;99.90
19397;DHT22;9834;48.076;11.878;2023-05-07T05:06:05;10.90;99.90
19397;DHT22;9834;48.076;11.878;2023-05-07T05:08:34;11.00;99.90
19397;DHT22;9834;48.076;11.878;2023-05-07T05:11:01;11.00;99.90
19397;DHT22;9834;48.076;11.878;2023-05-07T05:13:28;11.10;99.90
19397;DHT22;9834;48.076;11.878;2023-05-07T05:15:55;11.10;99.90
19397;DHT22;9834;48.076;11.878;2023-05-07T05:18:22;11.10;99.90
19397;DHT22;9834;48.076;11.878;2023-05-07T05:20:51;11.20;99.90
19397;DHT22;9834;48.076;11.878;2023-05-07T05:23:19;11.20;99.90
19397;DHT22;9834;48.076;11.878;2023-05-07T05:25:48;11.20;99.90
19397;DHT22;9834;48.076;11.878;2023-05-07T05:28:15;11.30;99.90
19397;DHT22;9834;48.076;11.878;2023-05-07T05:30:43;11.30;99.90
19397;DHT22;9834;48.076;11.878;2023-05-07T05:33:10;11.30;99.90
19397;DHT22;9834;48.076;11.878;2023-05-07T05:35:38;11.40;99.90
19397;DHT22;9834;48.076;11.878;2023-05-07T05:38:05;11.40;99.90
19397;DHT22;9834;48.076;11.878;2023-05-07T05:40:32;11.50;99.90
19397;DHT22;9834;48.076;11.878;2023-05-07T05:43:01;11.60;99.90
19397;DHT22;9834;48.076;11.878;2023-05-07T05:45:28;11.70;99.90
19397;DHT22;9834;48.076;11.878;2023-05-07T05:47:56;11.80;99.90
19397;DHT22;9834;48.076;11.878;2023-05-07T05:50:24;12.00;99.90
19397;DHT22;9834;48.076;11.878;2023-05-07T05:52:51;12.10;99.90
19397;DHT22;9834;48.076;11.878;2023-05-07T05:55:18;12.20;99.90
19397;DHT22;9834;48.076;11.878;2023-05-07T05:57:46;12.30;99.90
19397;DHT22;9834;48.076;11.878;2023-05-07T06:00:15;12.50;99.90
19397;DHT22;9834;48.076;11.878;2023-05-07T06:02:42;12.60;99.90
19397;DHT22;9834;48.076;11.878;2023-05-07T06:05:09;12.70;99.90
19397;DHT22;9834;48.076;11.878;2023-05-07T06:07:36;12.80;99.90
19397;DHT22;9834;48.076;11.878;2023-05-07T06:10:03;12.90;99.90
19397;DHT22;9834;48.076;11.878;2023-05-07T06:12:31;13.00;99.90
19397;DHT22;9834;48.076;11.878;2023-05-07T06:14:58;13.10;99.90
19397;DHT22;9834;48.076;11.878;2023-05-07T06:17:26;13.20;99.90
19397;DHT22;9834;48.076;11.878;2023-05-07T06:19:54;13.40;99.90
19397;DHT22;9834;48.076;11.878;2023-05-07T06:22:21;13.50;99.90
19397;DHT22;9834;48.076;11.878;2023-05-07T06:24:48;13.60;99.90
19397;DHT22;9834;48.076;11.878;2023-05-07T06:27:16;13.70;99.90
19397;DHT22;9834;48.076;11.878;2023-05-07T06:29:43;13.80;99.90
19397;DHT22;9834;48.076;11.878;2023-05-07T06:32:11;13.90;99.90
19397;DHT22;9834;48.076;11.878;2023-05-07T06:34:40;14.00;99.90
19397;DHT22;9834;48.076;11.878;2023-05-07T06:37:08;14.20;99.90
19397;DHT22;9834;48.076;11.878;2023-05-07T06:39:35;14.30;99.90
19397;DHT22;9834;48.076;11.878;2023-05-07T06:42:03;14.40;99.90
19397;DHT22;9834;48.076;11.878;2023-05-07T06:44:30;14.50;99.90
19397;DHT22;9834;48.076;11.878;2023-05-07T06:46:57;14.60;99.90
19397;DHT22;9834;48.076;11.878;2023-05-07T06:49:24;14.70;99.90
19397;DHT22;9834;48.076;11.878;2023-05-07T06:51:53;14.80;99.90
19397;DHT22;9834;48.076;11.878;2023-05-07T06:54:21;14.90;99.90
19397;DHT22;9834;48.076;11.878;2023-05-07T06:56:47;15.00;99.90
19397;DHT22;9834;48.076;11.878;2023-05-07T06:59:15;15.10;99.90
19397;DHT22;9834;48.076;11.878;2023-05-07T07:01:42;15.20;99.90
19397;DHT22;9834;48.076;11.878;2023-05-07T07:04:09;15.30;99.90
19397;DHT22;9834;48.076;11.878;2023-05-07T07:06:37;15.50;99.90
19397;DHT22;9834;48.076;11.878;2023-05-07T07:09:06;15.60;99.90
19397;DHT22;9834;48.076;11.878;2023-05-07T07:11:33;15.70;99.90
19397;DHT22;9834;48.076;11.878;2023-05-07T07:14:00;15.80;99.90
19397;DHT22;9834;48.076;11.878;2023-05-07T07:16:27;15.80;99.90
19397;DHT22;9834;48.076;11.878;2023-05-07T07:18:54;15.90;99.90
19397;DHT22;9834;48.076;11.878;2023-05-07T07:21:22;16.00;99.90
19397;DHT22;9834;48.076;11.878;2023-05-07T07:23:49;16.10;99.90
19397;DHT22;9834;48.076;11.878;2023-05-07T07:26:18;16.30;99.90
19397;DHT22;9834;48.076;11.878;2023-05-07T07:28:46;16.40;99.90
19397;DHT22;9834;48.076;11.878;2023-05-07T07:31:14;16.50;99.90
19397;DHT22;9834;48.076;11.878;2023-05-07T07:33:41;16.60;99.90
19397;DHT22;9834;48.076;11.878;2023-05-07T07:36:10;16.60;99.90
19397;DHT22;9834;48.076;11.878;2023-05-07T07:38:37;16.70;99.90
19397;DHT22;9834;48.076;11.878;2023-05-07T07:41:05;16.70;99.90
19397;DHT22;9834;48.076;11.878;2023-05-07T07:43:33;16.80;99.90
19397;DHT22;9834;48.076;11.878;2023-05-07T07:46:01;16.90;99.90
19397;DHT22;9834;48.076;11.878;2023-05-07T07:48:28;17.00;99.90
19397;DHT22;9834;48.076;11.878;2023-05-07T07:50:56;17.20;99.90
19397;DHT22;9834;48.076;11.878;2023-05-07T07:53:23;17.20;99.90
19397;DHT22;9834;48.076;11.878;2023-05-07T07:55:51;17.30;99.90
19397;DHT22;9834;48.076;11.878;2023-05-07T07:58:18;17.30;99.90
19397;DHT22;9834;48.076;11.878;2023-05-07T08:00:47;17.30;99.90
19397;DHT22;9834;48.076;11.878;2023-05-07T08:03:14;17.40;99.90
19397;DHT22;9834;48.076;11.878;2023-05-07T08:05:42;17.50;99.90
19397;DHT22;9834;48.076;11.878;2023-05-07T08:08:09;17.60;99.90
19397;DHT22;9834;48.076;11.878;2023-05-07T08:10:37;17.70;99.90
19397;DHT22;9834;48.076;11.878;2023-05-07T08:13:05;17.80;99.90
19397;DHT22;9834;48.076;11.878;2023-05-07T08:15:32;17.90;99.90
19397;DHT22;9834;48.076;11.878;2023-05-07T08:18:03;18.00;99.90
19397;DHT22;9834;48.076;11.878;2023-05-07T08:20:30;18.20;99.90
19397;DHT22;9834;48.076;11.878;2023-05-07T08:22:57;18.40;99.90
19397;DHT22;9834;48.076;11.878;2023-05-07T08:25:24;18.50;99.90
19397;DHT22;9834;48.076;11.878;2023-05-07T08:27:51;18.60;99.90
19397;DHT22;9834;48.076;11.878;2023-05-07T08:30:19;18.80;99.90
19397;DHT22;9834;48.076;11.878;2023-05-07T08:32:46;18.80;99.90
19397;DHT22;9834;48.076;11.878;2023-05-07T08:35:15;18.90;99.90
19397;DHT22;9834;48.076;11.878;2023-05-07T08:37:42;19.00;99.90
19397;DHT22;9834;48.076;11.878;2023-05-07T08:40:11;18.90;99.90
19397;DHT22;9834;48.076;11.878;2023-05-07T08:42:40;18.90;99.90
19397;DHT22;9834;48.076;11.878;2023-05-07T08:45:09;19.00;99.90
19397;DHT22;9834;48.076;11.878;2023-05-07T08:47:43;19.20;99.90
19397;DHT22;9834;48.076;11.878;2023-05-07T08:50:11;19.40;99.90
19397;DHT22;9834;48.076;11.878;2023-05-07T08:52:40;19.50;99.90
19397;DHT22;9834;48.076;11.878;2023-05-07T08:55:09;19.60;99.90
19397;DHT22;9834;48.076;11.878;2023-05-07T08:57:37;19.70;99.90
19397;DHT22;9834;48.076;11.878;2023-05-07T09:00:06;19.80;99.90
19397;DHT22;9834;48.076;11.878;2023-05-07T09:02:34;20.00;99.90
19397;DHT22;9834;48.076;11.878;2023-05-07T09:05:02;20.00;97.70
19397;DHT22;9834;48.076;11.878;2023-05-07T09:07:30;20.10;96.10
19397;DHT22;9834;48.076;11.878;2023-05-07T09:10:01;20.20;96.40
19397;DHT22;9834;48.076;11.878;2023-05-07T09:12:29;20.40;95.50
19397;DHT22;9834;48.076;11.878;2023-05-07T09:14:57;20.50;93.10
19397;DHT22;9834;48.076;11.878;2023-05-07T09:17:26;20.50;92.60
19397;DHT22;9834;48.076;11.878;2023-05-07T09:19:53;20.70;93.10
19397;DHT22;9834;48.076;11.878;2023-05-07T09:22:21;20.80;93.50
19397;DHT22;9834;48.076;11.878;2023-05-07T09:24:49;20.80;92.40
19397;DHT22;9834;48.076;11.878;2023-05-07T09:27:18;20.90;91.30
19397;DHT22;9834;48.076;11.878;2023-05-07T09:29:45;21.00;89.20
19397;DHT22;9834;48.076;11.878;2023-05-07T09:32:14;21.20;92.40
19397;DHT22;9834;48.076;11.878;2023-05-07T09:34:42;21.30;84.30
19397;DHT22;9834;48.076;11.878;2023-05-07T09:37:12;21.40;90.40
19397;DHT22;9834;48.076;11.878;2023-05-07T09:39:40;21.70;90.70
19397;DHT22;9834;48.076;11.878;2023-05-07T09:42:08;21.90;87.40
19397;DHT22;9834;48.076;11.878;2023-05-07T09:44:38;22.10;83.10
19397;DHT22;9834;48.076;11.878;2023-05-07T09:47:07;22.30;85.60
19397;DHT22;9834;48.076;11.878;2023-05-07T09:49:36;22.30;86.50
19397;DHT22;9834;48.076;11.878;2023-05-07T09:52:05;22.50;81.10
19397;DHT22;9834;48.076;11.878;2023-05-07T09:54:35;22.50;85.70
19397;DHT22;9834;48.076;11.878;2023-05-07T09:57:04;22.90;88.50
19397;DHT22;9834;48.076;11.878;2023-05-07T09:59:33;23.20;89.70
19397;DHT22;9834;48.076;11.878;2023-05-07T10:02:04;23.40;76.40
19397;DHT22;9834;48.076;11.878;2023-05-07T10:04:32;23.50;77.60
19397;DHT22;9834;48.076;11.878;2023-05-07T10:07:00;23.50;78.20
19397;DHT22;9834;48.076;11.878;2023-05-07T10:09:29;23.80;76.70
19397;DHT22;9834;48.076;11.878;2023-05-07T10:11:57;24.20;74.20
19397;DHT22;9834;48.076;11.878;2023-05-07T10:14:27;24.60;73.30
19397;DHT22;9834;48.076;11.878;2023-05-07T10:16:55;25.10;72.40
19397;DHT22;9834;48.076;11.878;2023-05-07T10:19:24;25.20;70.20
19397;DHT22;9834;48.076;11.878;2023-05-07T10:21:55;25.40;69.90
19397;DHT22;9834;48.076;11.878;2023-05-07T10:24:26;25.60;66.50
19397;DHT22;9834;48.076;11.878;2023-05-07T10:26:55;25.90;64.40
19397;DHT22;9834;48.076;11.878;2023-05-07T10:29:33;26.00;66.10
19397;DHT22;9834;48.076;11.878;2023-05-07T10:32:14;26.20;66.50
19397;DHT22;9834;48.076;11.878;2023-05-07T10:34:49;26.50;60.80
19397;DHT22;9834;48.076;11.878;2023-05-07T10:37:21;26.60;60.70
19397;DHT22;9834;48.076;11.878;2023-05-07T10:39:54;26.50;59.60
19397;DHT22;9834;48.076;11.878;2023-05-07T10:42:22;26.60;61.40
19397;DHT22;9834;48.076;11.878;2023-05-07T10:44:50;26.60;59.90
19397;DHT22;9834;48.076;11.878;2023-05-07T10:47:17;26.50;60.00
19397;DHT22;9834;48.076;11.878;2023-05-07T10:50:22;26.40;58.30
19397;DHT22;9834;48.076;11.878;2023-05-07T10:53:21;26.40;58.30
19397;DHT22;9834;48.076;11.878;2023-05-07T10:56:24;26.30;58.00
19397;DHT22;9834;48.076;11.878;2023-05-07T10:58:53;26.30;59.20
19397;DHT22;9834;48.076;11.878;2023-05-07T11:01:52;26.50;57.30
19397;DHT22;9834;48.076;11.878;2023-05-07T11:04:20;26.80;57.10
19397;DHT22;9834;48.076;11.878;2023-05-07T11:10:04;26.40;57.40
19397;DHT22;9834;48.076;11.878;2023-05-07T11:12:51;26.50;57.50
19397;DHT22;9834;48.076;11.878;2023-05-07T11:15:42;26.80;54.10
19397;DHT22;9834;48.076;11.878;2023-05-07T11:18:12;26.90;56.40
19397;DHT22;9834;48.076;11.878;2023-05-07T11:20:57;27.10;56.50
19397;DHT22;9834;48.076;11.878;2023-05-07T11:23:56;27.10;53.50
19397;DHT22;9834;48.076;11.878;2023-05-07T11:26:27;27.30;54.10
19397;DHT22;9834;48.076;11.878;2023-05-07T11:28:55;27.70;55.10
19397;DHT22;9834;48.076;11.878;2023-05-07T11:31:26;28.00;55.30
19397;DHT22;9834;48.076;11.878;2023-05-07T11:33:56;28.70;53.20
19397;DHT22;9834;48.076;11.878;2023-05-07T11:36:24;29.10;50.20
19397;DHT22;9834;48.076;11.878;2023-05-07T11:38:52;29.10;50.60
19397;DHT22;9834;48.076;11.878;2023-05-07T11:41:19;28.80;48.70
19397;DHT22;9834;48.076;11.878;2023-05-07T11:43:56;29.00;50.10
19397;DHT22;9834;48.076;11.878;2023-05-07T11:46:24;29.30;51.20
19397;DHT22;9834;48.076;11.878;2023-05-07T11:48:52;29.10;50.20
19397;DHT22;9834;48.076;11.878;2023-05-07T11:51:20;29.00;49.00
19397;DHT22;9834;48.076;11.878;2023-05-07T11:53:48;29.10;49.00
19397;DHT22;9834;48.076;11.878;2023-05-07T11:56:17;28.90;48.80
19397;DHT22;9834;48.076;11.878;2023-05-07T11:58:46;28.60;47.70
19397;DHT22;9834;48.076;11.878;2023-05-07T12:01:16;28.60;51.80
19397;DHT22;9834;48.076;11.878;2023-05-07T12:03:46;28.90;51.50
19397;DHT22;9834;48.076;11.878;2023-05-07T12:06:16;29.10;50.80
19397;DHT22;9834;48.076;11.878;2023-05-07T12:08:44;30.10;51.20
19397;DHT22;9834;48.076;11.878;2023-05-07T12:11:14;31.10;48.20
19397;DHT22;9834;48.076;11.878;2023-05-07T12:13:43;31.60;45.10
19397;DHT22;9834;48.076;11.878;2023-05-07T12:16:13;31.60;44.10
19397;DHT22;9834;48.076;11.878;2023-05-07T12:18:43;31.90;45.00
19397;DHT22;9834;48.076;11.878;2023-05-07T12:21:12;32.10;44.50
19397;DHT22;9834;48.076;11.878;2023-05-07T12:23:40;32.30;43.20
19397;DHT22;9834;48.076;11.878;2023-05-07T12:26:08;31.90;42.20
19397;DHT22;9834;48.076;11.878;2023-05-07T12:28:37;31.20;45.60
19397;DHT22;9834;48.076;11.878;2023-05-07T12:31:06;30.70;45.10
19397;DHT22;9834;48.076;11.878;2023-05-07T12:33:34;30.20;44.70
19397;DHT22;9834;48.076;11.878;2023-05-07T12:36:06;29.40;45.50
19397;DHT22;9834;48.076;11.878;2023-05-07T12:38:38;29.60;44.90
19397;DHT22;9834;48.076;11.878;2023-05-07T12:41:07;29.30;47.40
19397;DHT22;9834;48.076;11.878;2023-05-07T12:43:35;29.20;46.40
19397;DHT22;9834;48.076;11.878;2023-05-07T12:46:06;30.00;46.50
19397;DHT22;9834;48.076;11.878;2023-05-07T12:48:35;30.10;46.80
19397;DHT22;9834;48.076;11.878;2023-05-07T12:51:05;30.10;47.40
19397;DHT22;9834;48.076;11.878;2023-05-07T12:53:33;30.90;46.20
19397;DHT22;9834;48.076;11.878;2023-05-07T12:56:02;30.90;45.50
19397;DHT22;9834;48.076;11.878;2023-05-07T12:58:33;30.50;45.90
19397;DHT22;9834;48.076;11.878;2023-05-07T13:01:04;30.40;45.30
19397;DHT22;9834;48.076;11.878;2023-05-07T13:03:33;30.50;45.10
19397;DHT22;9834;48.076;11.878;2023-05-07T13:06:04;30.50;47.00
19397;DHT22;9834;48.076;11.878;2023-05-07T13:08:33;30.50;43.10
19397;DHT22;9834;48.076;11.878;2023-05-07T13:11:02;30.40;48.20
19397;DHT22;9834;48.076;11.878;2023-05-07T13:13:31;30.10;45.30
19397;DHT22;9834;48.076;11.878;2023-05-07T13:15:59;29.70;44.80
19397;DHT22;9834;48.076;11.878;2023-05-07T13:18:26;29.80;46.40
19397;DHT22;9834;48.076;11.878;2023-05-07T13:20:54;30.50;45.70
19397;DHT22;9834;48.076;11.878;2023-05-07T13:23:23;30.90;44.90
19397;DHT22;9834;48.076;11.878;2023-05-07T13:25:51;31.30;42.80
19397;DHT22;9834;48.076;11.878;2023-05-07T13:28:19;31.00;41.80
19397;DHT22;9834;48.076;11.878;2023-05-07T13:30:47;30.60;44.00
19397;DHT22;9834;48.076;11.878;2023-05-07T13:33:15;30.40;45.10
19397;DHT22;9834;48.076;11.878;2023-05-07T13:35:42;30.30;43.90
19397;DHT22;9834;48.076;11.878;2023-05-07T13:38:10;29.90;45.50
19397;DHT22;9834;48.076;11.878;2023-05-07T13:40:39;29.80;46.60
19397;DHT22;9834;48.076;11.878;2023-05-07T13:43:06;29.20;45.30
19397;DHT22;9834;48.076;11.878;2023-05-07T13:45:34;29.00;46.40
19397;DHT22;9834;48.076;11.878;2023-05-07T13:48:01;29.00;47.10
19397;DHT22;9834;48.076;11.878;2023-05-07T13:50:29;28.80;48.50
19397;DHT22;9834;48.076;11.878;2023-05-07T13:52:56;28.50;49.50
19397;DHT22;9834;48.076;11.878;2023-05-07T13:55:24;28.20;49.20
19397;DHT22;9834;48.076;11.878;2023-05-07T13:57:57;27.70;49.40
19397;DHT22;9834;48.076;11.878;2023-05-07T14:00:25;27.20;49.00
19397;DHT22;9834;48.076;11.878;2023-05-07T14:02:54;27.50;51.10
19397;DHT22;9834;48.076;11.878;2023-05-07T14:05:22;27.90;50.90
19397;DHT22;9834;48.076;11.878;2023-05-07T14:07:50;27.80;48.80
19397;DHT22;9834;48.076;11.878;2023-05-07T14:10:18;27.60;48.50
19397;DHT22;9834;48.076;11.878;2023-05-07T14:12:46;27.40;50.70
19397;DHT22;9834;48.076;11.878;2023-05-07T14:15:15;26.90;50.70
19397;DHT22;9834;48.076;11.878;2023-05-07T14:17:43;26.50;50.90
19397;DHT22;9834;48.076;11.878;2023-05-07T14:20:11;25.90;52.30
19397;DHT22;9834;48.076;11.878;2023-05-07T14:22:39;25.40;53.40
19397;DHT22;9834;48.076;11.878;2023-05-07T14:25:07;25.20;54.30
19397;DHT22;9834;48.076;11.878;2023-05-07T14:27:35;24.80;54.50
19397;DHT22;9834;48.076;11.878;2023-05-07T14:30:03;24.60;56.80
19397;DHT22;9834;48.076;11.878;2023-05-07T14:32:32;24.50;55.30
19397;DHT22;9834;48.076;11.878;2023-05-07T14:34:59;24.50;55.70
19397;DHT22;9834;48.076;11.878;2023-05-07T14:37:27;24.50;55.00
19397;DHT22;9834;48.076;11.878;2023-05-07T14:39:54;24.50;54.40
19397;DHT22;9834;48.076;11.878;2023-05-07T14:42:22;24.30;56.30
19397;DHT22;9834;48.076;11.878;2023-05-07T14:44:49;24.30;55.60
19397;DHT22;9834;48.076;11.878;2023-05-07T14:47:18;24.20;55.30
19397;DHT22;9834;48.076;11.878;2023-05-07T14:49:47;24.50;56.30
19397;DHT22;9834;48.076;11.878;2023-05-07T14:52:15;24.50;56.00
19397;DHT22;9834;48.076;11.878;2023-05-07T14:54:42;24.40;53.90
19397;DHT22;9834;48.076;11.878;2023-05-07T14:57:10;24.30;55.80
19397;DHT22;9834;48.076;11.878;2023-05-07T14:59:39;24.00;56.50
19397;DHT22;9834;48.076;11.878;2023-05-07T15:02:07;24.00;56.00
19397;DHT22;9834;48.076;11.878;2023-05-07T15:04:34;24.00;55.30
19397;DHT22;9834;48.076;11.878;2023-05-07T15:07:03;23.90;55.30
19397;DHT22;9834;48.076;11.878;2023-05-07T15:09:31;23.50;58.10
19397;DHT22;9834;48.076;11.878;2023-05-07T15:11:58;23.50;57.90
19397;DHT22;9834;48.076;11.878;2023-05-07T15:14:26;23.30;57.30
19397;DHT22;9834;48.076;11.878;2023-05-07T15:16:53;23.20;59.70
19397;DHT22;9834;48.076;11.878;2023-05-07T15:19:21;23.00;58.00
19397;DHT22;9834;48.076;11.878;2023-05-07T15:21:50;22.90;58.90
19397;DHT22;9834;48.076;11.878;2023-05-07T15:24:19;22.70;61.00
19397;DHT22;9834;48.076;11.878;2023-05-07T15:26:47;22.60;59.90
19397;DHT22;9834;48.076;11.878;2023-05-07T15:29:14;22.50;60.40
19397;DHT22;9834;48.076;11.878;2023-05-07T15:31:41;22.50;59.00
19397;DHT22;9834;48.076;11.878;2023-05-07T15:34:09;22.70;60.30
19397;DHT22;9834;48.076;11.878;2023-05-07T15:36:36;22.80;58.40
19397;DHT22;9834;48.076;11.878;2023-05-07T15:39:04;22.80;60.50
19397;DHT22;9834;48.076;11.878;2023-05-07T15:41:33;23.00;59.00
19397;DHT22;9834;48.076;11.878;2023-05-07T15:44:00;23.20;60.10